sensor_id;sensor_type;location;lat;lon;timestamp;P1;durP1;ratioP1;P2;durP2;ratioP2
46222;SDS011;31943;51.410;7.564;2023-02-14T00:02:14;6.25;;;3.28;;
46222;SDS011;31943;51.410;7.564;2023-02-14T00:04:40;5.43;;;2.90;;
46222;SDS011;31943;51.410;7.564;2023-02-14T00:07:05;4.40;;;3.25;;
46222;SDS011;31943;51.410;7.564;2023-02-14T00:09:33;5.45;;;3.15;;
46222;SDS011;31943;51.410;7.564;2023-02-14T00:11:59;6.22;;;3.03;;
46222;SDS011;31943;51.410;7.564;2023-02-14T00:14:24;6.72;;;3.10;;
46222;SDS011;31943;51.410;7.564;2023-02-14T00:16:50;4.15;;;2.50;;
46222;SDS011;31943;51.410;7.564;2023-02-14T00:19:17;4.90;;;3.58;;
46222;SDS011;31943;51.410;7.564;2023-02-14T00:21:43;4.47;;;3.22;;
46222;SDS011;31943;51.410;7.564;2023-02-14T00:24:10;3.85;;;3.40;;
46222;SDS011;31943;51.410;7.564;2023-02-14T00:26:39;5.50;;;4.07;;
46222;SDS011;31943;51.410;7.564;2023-02-14T00:29:05;5.15;;;4.10;;
46222;SDS011;31943;51.410;7.564;2023-02-14T00:31:32;7.90;;;4.95;;
46222;SDS011;31943;51.410;7.564;2023-02-14T00:33:58;5.10;;;3.95;;
46222;SDS011;31943;51.410;7.564;2023-02-14T00:36:24;5.07;;;3.60;;
46222;SDS011;31943;51.410;7.564;2023-02-14T00:38:50;5.07;;;3.95;;
46222;SDS011;31943;51.410;7.564;2023-02-14T00:41:16;4.85;;;3.55;;
46222;SDS011;31943;51.410;7.564;2023-02-14T00:43:43;4.97;;;3.67;;
46222;SDS011;31943;51.410;7.564;2023-02-14T00:46:09;5.38;;;3.70;;
46222;SDS011;31943;51.410;7.564;2023-02-14T00:48:35;6.53;;;3.33;;
46222;SDS011;31943;51.410;7.564;2023-02-14T00:51:00;6.32;;;3.95;;
46222;SDS011;31943;51.410;7.564;2023-02-14T00:53:26;6.15;;;3.70;;
46222;SDS011;31943;51.410;7.564;2023-02-14T00:55:52;4.93;;;4.00;;
46222;SDS011;31943;51.410;7.564;2023-02-14T00:58:18;7.07;;;4.45;;
46222;SDS011;31943;51.410;7.564;2023-02-14T01:00:46;8.07;;;4.30;;
46222;SDS011;31943;51.410;7.564;2023-02-14T01:03:11;6.20;;;4.18;;
46222;SDS011;31943;51.410;7.564;2023-02-14T01:05:37;6.88;;;4.20;;
46222;SDS011;31943;51.410;7.564;2023-02-14T01:08:03;6.88;;;4.40;;
46222;SDS011;31943;51.410;7.564;2023-02-14T01:10:29;6.72;;;4.63;;
46222;SDS011;31943;51.410;7.564;2023-02-14T01:12:55;5.40;;;4.50;;
46222;SDS011;31943;51.410;7.564;2023-02-14T01:15:21;6.35;;;4.00;;
46222;SDS011;31943;51.410;7.564;2023-02-14T01:17:48;6.05;;;4.32;;
46222;SDS011;31943;51.410;7.564;2023-02-14T01:20:14;4.53;;;3.65;;
46222;SDS011;31943;51.410;7.564;2023-02-14T01:22:40;5.43;;;3.92;;
46222;SDS011;31943;51.410;7.564;2023-02-14T01:25:06;10.07;;;4.43;;
46222;SDS011;31943;51.410;7.564;2023-02-14T01:27:32;5.25;;;3.85;;
46222;SDS011;31943;51.410;7.564;2023-02-14T01:29:57;5.75;;;3.72;;
46222;SDS011;31943;51.410;7.564;2023-02-14T01:32:23;5.32;;;3.20;;
46222;SDS011;31943;51.410;7.564;2023-02-14T01:34:50;5.35;;;3.50;;
46222;SDS011;31943;51.410;7.564;2023-02-14T01:37:16;5.30;;;3.42;;
46222;SDS011;31943;51.410;7.564;2023-02-14T01:39:42;4.60;;;3.42;;
46222;SDS011;31943;51.410;7.564;2023-02-14T01:42:09;5.72;;;3.60;;
46222;SDS011;31943;51.410;7.564;2023-02-14T01:44:55;6.68;;;3.60;;
46222;SDS011;31943;51.410;7.564;2023-02-14T01:47:23;5.35;;;3.90;;
46222;SDS011;31943;51.410;7.564;2023-02-14T01:49:55;6.38;;;3.53;;
46222;SDS011;31943;51.410;7.564;2023-02-14T01:52:26;5.20;;;3.50;;
46222;SDS011;31943;51.410;7.564;2023-02-14T01:54:56;5.55;;;3.40;;
46222;SDS011;31943;51.410;7.564;2023-02-14T01:57:27;4.28;;;3.30;;
46222;SDS011;31943;51.410;7.564;2023-02-14T01:59:58;5.32;;;3.95;;
46222;SDS011;31943;51.410;7.564;2023-02-14T02:02:24;4.72;;;3.88;;
46222;SDS011;31943;51.410;7.564;2023-02-14T02:04:50;5.55;;;3.90;;
46222;SDS011;31943;51.410;7.564;2023-02-14T02:07:21;4.97;;;3.60;;
46222;SDS011;31943;51.410;7.564;2023-02-14T02:09:50;3.92;;;3.08;;
46222;SDS011;31943;51.410;7.564;2023-02-14T02:12:19;5.32;;;3.30;;
46222;SDS011;31943;51.410;7.564;2023-02-14T02:14:47;5.05;;;3.47;;
46222;SDS011;31943;51.410;7.564;2023-02-14T02:17:19;5.10;;;3.55;;
46222;SDS011;31943;51.410;7.564;2023-02-14T02:20:14;7.50;;;4.05;;
46222;SDS011;31943;51.410;7.564;2023-02-14T02:26:36;4.45;;;3.50;;
46222;SDS011;31943;51.410;7.564;2023-02-14T02:29:23;5.57;;;3.15;;
46222;SDS011;31943;51.410;7.564;2023-02-14T02:32:19;5.28;;;3.47;;
46222;SDS011;31943;51.410;7.564;2023-02-14T02:35:21;4.68;;;3.20;;
46222;SDS011;31943;51.410;7.564;2023-02-14T02:38:01;4.47;;;3.23;;
46222;SDS011;31943;51.410;7.564;2023-02-14T02:40:42;5.85;;;3.80;;
46222;SDS011;31943;51.410;7.564;2023-02-14T02:43:18;4.88;;;3.55;;
46222;SDS011;31943;51.410;7.564;2023-02-14T02:45:56;4.82;;;3.70;;
46222;SDS011;31943;51.410;7.564;2023-02-14T02:48:30;5.40;;;4.20;;
46222;SDS011;31943;51.410;7.564;2023-02-14T02:51:16;6.20;;;3.80;;
46222;SDS011;31943;51.410;7.564;2023-02-14T02:53:50;5.15;;;3.88;;
46222;SDS011;31943;51.410;7.564;2023-02-14T02:56:18;6.28;;;3.58;;
46222;SDS011;31943;51.410;7.564;2023-02-14T02:58:50;5.70;;;3.50;;
46222;SDS011;31943;51.410;7.564;2023-02-14T03:01:20;5.63;;;3.53;;
46222;SDS011;31943;51.410;7.564;2023-02-14T03:03:48;4.25;;;3.22;;
46222;SDS011;31943;51.410;7.564;2023-02-14T03:06:23;6.78;;;3.78;;
46222;SDS011;31943;51.410;7.564;2023-02-14T03:08:48;5.18;;;3.65;;
46222;SDS011;31943;51.410;7.564;2023-02-14T03:11:14;5.20;;;3.30;;
46222;SDS011;31943;51.410;7.564;2023-02-14T03:13:41;4.80;;;2.90;;
46222;SDS011;31943;51.410;7.564;2023-02-14T03:16:22;5.35;;;3.20;;
46222;SDS011;31943;51.410;7.564;2023-02-14T03:19:13;5.47;;;3.80;;
46222;SDS011;31943;51.410;7.564;2023-02-14T03:22:02;4.40;;;3.13;;
46222;SDS011;31943;51.410;7.564;2023-02-14T03:24:35;4.15;;;3.30;;
46222;SDS011;31943;51.410;7.564;2023-02-14T03:27:09;4.85;;;3.75;;
46222;SDS011;31943;51.410;7.564;2023-02-14T03:29:42;4.25;;;3.28;;
46222;SDS011;31943;51.410;7.564;2023-02-14T03:32:16;5.18;;;3.85;;
46222;SDS011;31943;51.410;7.564;2023-02-14T03:34:51;4.72;;;3.55;;
46222;SDS011;31943;51.410;7.564;2023-02-14T03:37:27;6.22;;;3.40;;
46222;SDS011;31943;51.410;7.564;2023-02-14T03:39:58;3.83;;;3.22;;
46222;SDS011;31943;51.410;7.564;2023-02-14T03:42:31;4.78;;;3.65;;
46222;SDS011;31943;51.410;7.564;2023-02-14T03:45:00;6.50;;;3.67;;
46222;SDS011;31943;51.410;7.564;2023-02-14T03:47:30;4.50;;;3.35;;
46222;SDS011;31943;51.410;7.564;2023-02-14T03:50:01;4.47;;;3.70;;
46222;SDS011;31943;51.410;7.564;2023-02-14T03:52:32;5.30;;;3.67;;
46222;SDS011;31943;51.410;7.564;2023-02-14T03:54:59;5.38;;;3.10;;
46222;SDS011;31943;51.410;7.564;2023-02-14T03:57:29;4.68;;;3.45;;
46222;SDS011;31943;51.410;7.564;2023-02-14T03:59:59;5.95;;;4.10;;
46222;SDS011;31943;51.410;7.564;2023-02-14T04:02:26;4.75;;;3.55;;
46222;SDS011;31943;51.410;7.564;2023-02-14T04:04:57;3.95;;;3.20;;
46222;SDS011;31943;51.410;7.564;2023-02-14T04:07:27;5.53;;;3.10;;
46222;SDS011;31943;51.410;7.564;2023-02-14T04:09:54;8.98;;;3.22;;
46222;SDS011;31943;51.410;7.564;2023-02-14T04:12:19;6.53;;;2.70;;
46222;SDS011;31943;51.410;7.564;2023-02-14T04:14:45;4.25;;;3.13;;
46222;SDS011;31943;51.410;7.564;2023-02-14T04:17:11;5.90;;;2.95;;
46222;SDS011;31943;51.410;7.564;2023-02-14T04:19:36;4.55;;;3.10;;
46222;SDS011;31943;51.410;7.564;2023-02-14T04:22:02;4.68;;;3.25;;
46222;SDS011;31943;51.410;7.564;2023-02-14T04:24:28;7.70;;;3.47;;
46222;SDS011;31943;51.410;7.564;2023-02-14T04:26:56;7.65;;;3.92;;
46222;SDS011;31943;51.410;7.564;2023-02-14T04:29:22;4.95;;;3.03;;
46222;SDS011;31943;51.410;7.564;2023-02-14T04:31:47;4.00;;;3.08;;
46222;SDS011;31943;51.410;7.564;2023-02-14T04:34:13;4.25;;;3.10;;
46222;SDS011;31943;51.410;7.564;2023-02-14T04:36:39;5.60;;;2.92;;
46222;SDS011;31943;51.410;7.564;2023-02-14T04:39:04;7.13;;;3.17;;
46222;SDS011;31943;51.410;7.564;2023-02-14T04:41:30;4.05;;;3.22;;
46222;SDS011;31943;51.410;7.564;2023-02-14T04:43:57;4.20;;;3.00;;
46222;SDS011;31943;51.410;7.564;2023-02-14T04:46:25;3.85;;;3.20;;
46222;SDS011;31943;51.410;7.564;2023-02-14T04:48:50;4.88;;;3.28;;
46222;SDS011;31943;51.410;7.564;2023-02-14T04:51:16;4.80;;;3.38;;
46222;SDS011;31943;51.410;7.564;2023-02-14T04:53:42;4.05;;;3.00;;
46222;SDS011;31943;51.410;7.564;2023-02-14T04:56:07;4.20;;;3.00;;
46222;SDS011;31943;51.410;7.564;2023-02-14T04:58:33;6.00;;;2.83;;
46222;SDS011;31943;51.410;7.564;2023-02-14T05:01:00;3.60;;;3.00;;
46222;SDS011;31943;51.410;7.564;2023-02-14T05:03:25;5.55;;;3.10;;
46222;SDS011;31943;51.410;7.564;2023-02-14T05:05:51;3.85;;;3.00;;
46222;SDS011;31943;51.410;7.564;2023-02-14T05:08:16;4.70;;;3.00;;
46222;SDS011;31943;51.410;7.564;2023-02-14T05:10:42;4.35;;;3.28;;
46222;SDS011;31943;51.410;7.564;2023-02-14T05:13:08;4.07;;;2.88;;
46222;SDS011;31943;51.410;7.564;2023-02-14T05:15:33;5.70;;;3.20;;
46222;SDS011;31943;51.410;7.564;2023-02-14T05:18:00;5.53;;;3.28;;
46222;SDS011;31943;51.410;7.564;2023-02-14T05:20:26;3.90;;;2.88;;
46222;SDS011;31943;51.410;7.564;2023-02-14T05:22:51;3.90;;;2.92;;
46222;SDS011;31943;51.410;7.564;2023-02-14T05:25:17;5.05;;;2.90;;
46222;SDS011;31943;51.410;7.564;2023-02-14T05:27:43;4.22;;;2.80;;
46222;SDS011;31943;51.410;7.564;2023-02-14T05:30:09;4.88;;;3.38;;
46222;SDS011;31943;51.410;7.564;2023-02-14T05:32:35;5.45;;;3.35;;
46222;SDS011;31943;51.410;7.564;2023-02-14T05:35:03;3.90;;;3.10;;
46222;SDS011;31943;51.410;7.564;2023-02-14T05:37:29;4.72;;;3.35;;
46222;SDS011;31943;51.410;7.564;2023-02-14T05:39:55;5.45;;;3.08;;
46222;SDS011;31943;51.410;7.564;2023-02-14T05:42:20;5.32;;;3.47;;
46222;SDS011;31943;51.410;7.564;2023-02-14T05:44:46;4.60;;;3.33;;
46222;SDS011;31943;51.410;7.564;2023-02-14T05:47:11;4.40;;;3.03;;
46222;SDS011;31943;51.410;7.564;2023-02-14T05:49:37;3.95;;;2.67;;
46222;SDS011;31943;51.410;7.564;2023-02-14T05:52:04;4.13;;;3.03;;
46222;SDS011;31943;51.410;7.564;2023-02-14T05:54:32;4.43;;;3.30;;
46222;SDS011;31943;51.410;7.564;2023-02-14T05:56:57;5.57;;;3.03;;
46222;SDS011;31943;51.410;7.564;2023-02-14T05:59:23;4.05;;;2.85;;
46222;SDS011;31943;51.410;7.564;2023-02-14T06:01:49;6.00;;;3.33;;
46222;SDS011;31943;51.410;7.564;2023-02-14T06:04:14;3.58;;;2.83;;
46222;SDS011;31943;51.410;7.564;2023-02-14T06:06:40;8.43;;;3.60;;
46222;SDS011;31943;51.410;7.564;2023-02-14T06:09:07;4.32;;;3.38;;
46222;SDS011;31943;51.410;7.564;2023-02-14T06:11:33;4.68;;;3.40;;
46222;SDS011;31943;51.410;7.564;2023-02-14T06:13:58;5.97;;;4.03;;
46222;SDS011;31943;51.410;7.564;2023-02-14T06:16:24;4.55;;;3.38;;
46222;SDS011;31943;51.410;7.564;2023-02-14T06:18:50;4.45;;;3.08;;
46222;SDS011;31943;51.410;7.564;2023-02-14T06:21:16;4.78;;;3.08;;
46222;SDS011;31943;51.410;7.564;2023-02-14T06:23:42;4.50;;;3.70;;
46222;SDS011;31943;51.410;7.564;2023-02-14T06:26:09;5.07;;;3.30;;
46222;SDS011;31943;51.410;7.564;2023-02-14T06:28:35;4.88;;;3.45;;
46222;SDS011;31943;51.410;7.564;2023-02-14T06:31:01;4.72;;;3.45;;
46222;SDS011;31943;51.410;7.564;2023-02-14T06:33:26;5.82;;;3.50;;
46222;SDS011;31943;51.410;7.564;2023-02-14T06:35:53;5.53;;;3.53;;
46222;SDS011;31943;51.410;7.564;2023-02-14T06:38:19;3.67;;;2.95;;
46222;SDS011;31943;51.410;7.564;2023-02-14T06:40:45;5.28;;;3.40;;
46222;SDS011;31943;51.410;7.564;2023-02-14T06:43:12;4.57;;;3.33;;
46222;SDS011;31943;51.410;7.564;2023-02-14T06:45:37;5.55;;;3.80;;
46222;SDS011;31943;51.410;7.564;2023-02-14T06:48:04;5.75;;;2.90;;
46222;SDS011;31943;51.410;7.564;2023-02-14T06:50:30;6.50;;;3.42;;
46222;SDS011;31943;51.410;7.564;2023-02-14T06:52:57;5.55;;;3.42;;
46222;SDS011;31943;51.410;7.564;2023-02-14T06:55:23;3.97;;;3.05;;
46222;SDS011;31943;51.410;7.564;2023-02-14T06:57:50;5.28;;;3.08;;
46222;SDS011;31943;51.410;7.564;2023-02-14T07:00:18;7.18;;;3.95;;
46222;SDS011;31943;51.410;7.564;2023-02-14T07:02:45;4.85;;;3.47;;
46222;SDS011;31943;51.410;7.564;2023-02-14T07:05:11;5.35;;;3.25;;
46222;SDS011;31943;51.410;7.564;2023-02-14T07:07:37;6.30;;;3.58;;
46222;SDS011;31943;51.410;7.564;2023-02-14T07:10:04;4.85;;;3.65;;
46222;SDS011;31943;51.410;7.564;2023-02-14T07:12:33;5.18;;;3.55;;
46222;SDS011;31943;51.410;7.564;2023-02-14T07:15:09;6.57;;;3.75;;
46222;SDS011;31943;51.410;7.564;2023-02-14T07:20:26;5.53;;;4.15;;
46222;SDS011;31943;51.410;7.564;2023-02-14T07:23:14;12.27;;;4.60;;
46222;SDS011;31943;51.410;7.564;2023-02-14T07:25:41;11.15;;;4.25;;
46222;SDS011;31943;51.410;7.564;2023-02-14T07:28:08;7.43;;;4.25;;
46222;SDS011;31943;51.410;7.564;2023-02-14T07:30:44;7.65;;;4.38;;
46222;SDS011;31943;51.410;7.564;2023-02-14T07:33:20;8.07;;;4.35;;
46222;SDS011;31943;51.410;7.564;2023-02-14T07:35:57;6.00;;;4.05;;
46222;SDS011;31943;51.410;7.564;2023-02-14T07:38:27;7.00;;;4.55;;
46222;SDS011;31943;51.410;7.564;2023-02-14T07:40:56;6.85;;;4.72;;
46222;SDS011;31943;51.410;7.564;2023-02-14T07:43:34;6.80;;;4.65;;
46222;SDS011;31943;51.410;7.564;2023-02-14T07:46:01;6.80;;;4.30;;
46222;SDS011;31943;51.410;7.564;2023-02-14T07:48:30;8.68;;;4.45;;
46222;SDS011;31943;51.410;7.564;2023-02-14T07:50:56;9.30;;;4.75;;
46222;SDS011;31943;51.410;7.564;2023-02-14T07:53:22;6.65;;;4.57;;
46222;SDS011;31943;51.410;7.564;2023-02-14T07:55:49;20.10;;;5.97;;
46222;SDS011;31943;51.410;7.564;2023-02-14T07:58:20;8.77;;;4.38;;
46222;SDS011;31943;51.410;7.564;2023-02-14T08:00:46;8.35;;;4.90;;
46222;SDS011;31943;51.410;7.564;2023-02-14T08:03:15;8.55;;;4.45;;
46222;SDS011;31943;51.410;7.564;2023-02-14T08:05:44;10.10;;;4.45;;
46222;SDS011;31943;51.410;7.564;2023-02-14T08:08:13;6.13;;;4.53;;
46222;SDS011;31943;51.410;7.564;2023-02-14T08:10:44;6.90;;;4.95;;
46222;SDS011;31943;51.410;7.564;2023-02-14T08:13:14;6.40;;;4.57;;
46222;SDS011;31943;51.410;7.564;2023-02-14T08:15:39;7.65;;;5.68;;
46222;SDS011;31943;51.410;7.564;2023-02-14T08:18:05;7.68;;;4.70;;
46222;SDS011;31943;51.410;7.564;2023-02-14T08:20:31;7.70;;;5.13;;
46222;SDS011;31943;51.410;7.564;2023-02-14T08:23:01;6.05;;;4.78;;
46222;SDS011;31943;51.410;7.564;2023-02-14T08:28:00;6.60;;;4.47;;
46222;SDS011;31943;51.410;7.564;2023-02-14T08:30:27;6.10;;;4.70;;
46222;SDS011;31943;51.410;7.564;2023-02-14T08:32:54;7.28;;;5.57;;
46222;SDS011;31943;51.410;7.564;2023-02-14T08:35:20;7.50;;;5.50;;
46222;SDS011;31943;51.410;7.564;2023-02-14T08:37:46;14.93;;;8.18;;
46222;SDS011;31943;51.410;7.564;2023-02-14T08:40:17;10.30;;;7.32;;
46222;SDS011;31943;51.410;7.564;2023-02-14T08:42:43;10.80;;;7.87;;
46222;SDS011;31943;51.410;7.564;2023-02-14T08:45:09;6.63;;;5.75;;
46222;SDS011;31943;51.410;7.564;2023-02-14T08:47:35;12.82;;;7.85;;
46222;SDS011;31943;51.410;7.564;2023-02-14T08:50:01;10.85;;;8.48;;
46222;SDS011;31943;51.410;7.564;2023-02-14T08:52:27;9.05;;;6.85;;
46222;SDS011;31943;51.410;7.564;2023-02-14T08:55:04;12.30;;;7.90;;
46222;SDS011;31943;51.410;7.564;2023-02-14T08:57:32;9.88;;;7.38;;
46222;SDS011;31943;51.410;7.564;2023-02-14T08:59:58;10.77;;;7.93;;
46222;SDS011;31943;51.410;7.564;2023-02-14T09:02:24;11.13;;;8.48;;
46222;SDS011;31943;51.410;7.564;2023-02-14T09:04:49;16.85;;;11.02;;
46222;SDS011;31943;51.410;7.564;2023-02-14T09:07:16;11.80;;;9.02;;
46222;SDS011;31943;51.410;7.564;2023-02-14T09:09:42;12.38;;;8.50;;
46222;SDS011;31943;51.410;7.564;2023-02-14T09:12:09;13.00;;;8.95;;
46222;SDS011;31943;51.410;7.564;2023-02-14T09:14:38;11.65;;;8.40;;
46222;SDS011;31943;51.410;7.564;2023-02-14T09:17:06;12.20;;;8.88;;
46222;SDS011;31943;51.410;7.564;2023-02-14T09:19:33;11.68;;;9.82;;
46222;SDS011;31943;51.410;7.564;2023-02-14T09:22:04;13.05;;;8.98;;
46222;SDS011;31943;51.410;7.564;2023-02-14T09:24:33;12.98;;;9.07;;
46222;SDS011;31943;51.410;7.564;2023-02-14T09:27:00;17.13;;;10.60;;
46222;SDS011;31943;51.410;7.564;2023-02-14T09:29:27;15.32;;;9.88;;
46222;SDS011;31943;51.410;7.564;2023-02-14T09:31:58;13.32;;;9.25;;
46222;SDS011;31943;51.410;7.564;2023-02-14T09:34:24;12.93;;;9.82;;
46222;SDS011;31943;51.410;7.564;2023-02-14T09:36:51;13.02;;;9.20;;
46222;SDS011;31943;51.410;7.564;2023-02-14T09:39:17;14.65;;;9.48;;
46222;SDS011;31943;51.410;7.564;2023-02-14T09:41:52;14.18;;;9.63;;
46222;SDS011;31943;51.410;7.564;2023-02-14T09:44:48;16.52;;;10.02;;
46222;SDS011;31943;51.410;7.564;2023-02-14T09:47:25;14.90;;;10.02;;
46222;SDS011;31943;51.410;7.564;2023-02-14T09:49:58;15.45;;;10.27;;
46222;SDS011;31943;51.410;7.564;2023-02-14T09:52:26;14.80;;;11.07;;
46222;SDS011;31943;51.410;7.564;2023-02-14T09:55:00;15.13;;;9.30;;
46222;SDS011;31943;51.410;7.564;2023-02-14T09:57:32;14.57;;;10.60;;
46222;SDS011;31943;51.410;7.564;2023-02-14T10:00:06;13.95;;;9.50;;
46222;SDS011;31943;51.410;7.564;2023-02-14T10:02:45;14.98;;;10.25;;
46222;SDS011;31943;51.410;7.564;2023-02-14T10:05:34;19.17;;;11.25;;
46222;SDS011;31943;51.410;7.564;2023-02-14T10:08:11;15.90;;;11.15;;
46222;SDS011;31943;51.410;7.564;2023-02-14T10:10:51;20.25;;;11.45;;
46222;SDS011;31943;51.410;7.564;2023-02-14T10:13:25;14.55;;;10.45;;
46222;SDS011;31943;51.410;7.564;2023-02-14T10:16:01;14.27;;;10.90;;
46222;SDS011;31943;51.410;7.564;2023-02-14T10:18:50;12.50;;;10.00;;
46222;SDS011;31943;51.410;7.564;2023-02-14T10:21:27;14.10;;;10.02;;
46222;SDS011;31943;51.410;7.564;2023-02-14T10:24:09;14.50;;;8.95;;
